Time;durP1;ratioP1;P1;durP2;ratioP2;P2;SDS_P1;SDS_P2;PMS_P1;PMS_P2;Temp;Humidity;BMP_temperature;BMP_pressure;BME280_temperature;BME280_humidity;BME280_pressure;Samples;Min_cycle;Max_cycle;Signal;HPM_P1;HPM_P2
2022/10/07 00:01:40;;;;;;;11.55;9.73;;;12.20;99.90;;;;;;4976036;28;20037;-82
2022/10/07 00:04:05;;;;;;;10.73;9.63;;;12.30;99.90;;;;;;4993006;28;20034;-81
2022/10/07 00:06:31;;;;;;;11.88;10.27;;;12.30;99.90;;;;;;4991562;28;20050;-80
2022/10/07 00:08:58;;;;;;;13.15;8.63;;;12.20;99.90;;;;;;4992581;28;20026;-81
2022/10/07 00:11:26;;;;;;;10.97;9.80;;;12.20;99.90;;;;;;4991542;28;20554;-82
2022/10/07 00:13:56;;;;;;;11.00;8.98;;;12.20;99.90;;;;;;4993354;28;20030;-81
2022/10/07 00:16:28;;;;;;;15.90;10.63;;;12.20;99.90;;;;;;4992895;28;20031;-82
2022/10/07 00:18:57;;;;;;;13.98;9.90;;;12.10;99.90;;;;;;5005650;28;20053;-82
2022/10/07 00:21:25;;;;;;;12.98;9.38;;;12.10;99.90;;;;;;4984542;28;20263;-83
2022/10/07 00:23:51;;;;;;;10.77;9.32;;;12.10;99.90;;;;;;4992183;28;20034;-83
2022/10/07 00:26:21;;;;;;;13.82;9.20;;;12.10;99.90;;;;;;4974741;28;20026;-83
2022/10/07 00:28:47;;;;;;;11.77;9.23;;;12.00;99.90;;;;;;4992171;28;20057;-81
2022/10/07 00:31:20;;;;;;;11.10;9.88;;;12.00;99.90;;;;;;4992196;28;20054;-83
2022/10/07 00:33:46;;;;;;;11.07;9.48;;;12.00;99.90;;;;;;4992317;28;20116;-82
2022/10/07 00:36:43;;;;;;;11.77;8.75;;;12.00;99.90;;;;;;4992321;28;20384;-81
2022/10/07 00:39:14;;;;;;;11.88;8.50;;;12.00;99.90;;;;;;4961584;28;20034;-82
2022/10/07 00:41:50;;;;;;;9.70;8.43;;;12.00;99.90;;;;;;4995803;28;20018;-83
2022/10/07 00:44:30;;;;;;;11.85;9.68;;;12.00;99.90;;;;;;5000604;28;20094;-83
2022/10/07 00:47:09;;;;;;;15.90;9.07;;;11.90;99.90;;;;;;5006368;28;20096;-83
2022/10/07 00:49:48;;;;;;;11.88;9.18;;;11.80;99.90;;;;;;4995680;28;20436;-83
2022/10/07 00:52:15;;;;;;;11.32;8.70;;;11.70;99.90;;;;;;4995319;28;20030;-82
2022/10/07 00:54:42;;;;;;;10.77;8.75;;;11.70;99.90;;;;;;4978000;28;20022;-84
2022/10/07 00:57:09;;;;;;;10.38;9.27;;;11.60;99.90;;;;;;4995305;28;20035;-85
2022/10/07 00:59:38;;;;;;;15.45;9.55;;;11.60;99.90;;;;;;4995771;28;20023;-84
2022/10/07 01:02:06;;;;;;;10.75;7.57;;;11.50;99.90;;;;;;4997724;28;20371;-84
2022/10/07 01:04:32;;;;;;;12.32;8.88;;;11.50;99.90;;;;;;5013271;28;20042;-82
2022/10/07 01:06:58;;;;;;;20.27;8.73;;;11.40;99.90;;;;;;4990090;28;20508;-84
2022/10/07 01:09:24;;;;;;;12.38;9.27;;;11.40;99.90;;;;;;4994330;28;20077;-83
2022/10/07 01:12:18;;;;;;;11.77;8.50;;;11.40;99.90;;;;;;4995486;28;20495;-84
2022/10/07 01:14:59;;;;;;;11.10;9.45;;;11.40;99.90;;;;;;4996019;28;20030;-85
2022/10/07 01:17:37;;;;;;;10.93;8.85;;;11.40;99.90;;;;;;4996158;28;20022;-84
2022/10/07 01:20:17;;;;;;;12.63;8.70;;;11.40;99.90;;;;;;4978277;28;20105;-82
2022/10/07 01:23:12;;;;;;;10.68;8.35;;;11.40;99.90;;;;;;4995826;28;20109;-83
2022/10/07 01:26:21;;;;;;;13.32;8.27;;;11.40;99.90;;;;;;4995205;28;20026;-84
2022/10/07 01:28:52;;;;;;;11.10;8.30;;;11.30;99.90;;;;;;4966495;28;20038;-83
2022/10/07 01:31:24;;;;;;;10.57;8.35;;;11.20;99.90;;;;;;4996242;28;20084;-82
2022/10/07 01:33:51;;;;;;;10.68;7.55;;;11.20;99.90;;;;;;4977305;28;20023;-83
2022/10/07 01:36:21;;;;;;;9.18;7.88;;;11.20;99.90;;;;;;4988038;28;20103;-84
2022/10/07 01:38:52;;;;;;;12.85;9.35;;;11.20;99.90;;;;;;4994889;28;20105;-84
2022/10/07 01:41:20;;;;;;;11.23;9.07;;;11.20;99.90;;;;;;4994720;28;20030;-80
2022/10/07 01:43:47;;;;;;;9.52;7.80;;;11.20;99.90;;;;;;4976719;28;20428;-82
2022/10/07 01:46:18;;;;;;;10.85;9.00;;;11.20;99.90;;;;;;4994205;28;20023;-81
2022/10/07 01:48:45;;;;;;;9.82;7.63;;;11.20;99.90;;;;;;4993332;28;20484;-80
2022/10/07 01:51:21;;;;;;;8.95;7.60;;;11.20;99.90;;;;;;4994102;28;20014;-80
2022/10/07 01:54:00;;;;;;;11.38;8.52;;;11.20;99.90;;;;;;4994217;28;20061;-83
2022/10/07 01:57:07;;;;;;;11.10;8.63;;;11.20;99.90;;;;;;4995143;28;20019;-82
2022/10/07 01:59:54;;;;;;;9.80;7.70;;;11.20;99.90;;;;;;4986596;28;20027;-83
2022/10/07 02:02:47;;;;;;;8.53;7.63;;;11.20;99.90;;;;;;4993601;28;20026;-81
2022/10/07 02:05:28;;;;;;;9.02;7.93;;;11.20;99.90;;;;;;4996479;28;20025;-82
2022/10/07 02:08:11;;;;;;;10.95;7.38;;;11.10;99.90;;;;;;4995748;28;20018;-82
2022/10/07 02:10:59;;;;;;;10.13;8.43;;;11.10;99.90;;;;;;4996401;28;20116;-83
2022/10/07 02:13:33;;;;;;;11.07;8.38;;;11.00;99.90;;;;;;4976264;28;20404;-83
2022/10/07 02:16:16;;;;;;;11.40;7.97;;;11.00;99.90;;;;;;4993871;28;20076;-83
2022/10/07 02:18:47;;;;;;;9.70;8.20;;;11.00;99.90;;;;;;4996993;28;20061;-83
2022/10/07 02:21:14;;;;;;;8.02;7.18;;;11.00;99.90;;;;;;5007990;28;20473;-81
2022/10/07 02:23:42;;;;;;;12.95;8.30;;;11.00;99.90;;;;;;4995265;28;20031;-84
2022/10/07 02:26:12;;;;;;;10.52;8.30;;;11.00;99.90;;;;;;4995915;28;20022;-83
2022/10/07 02:28:41;;;;;;;10.98;7.88;;;11.00;99.90;;;;;;4993701;28;20027;-82
2022/10/07 02:31:09;;;;;;;11.15;8.50;;;11.00;99.90;;;;;;4993663;28;20029;-83
2022/10/07 02:33:37;;;;;;;10.55;8.55;;;10.90;99.90;;;;;;4993669;28;20387;-83
2022/10/07 02:36:09;;;;;;;11.38;8.15;;;10.90;99.90;;;;;;4993735;28;20391;-83
2022/10/07 02:38:38;;;;;;;14.45;8.13;;;10.90;99.90;;;;;;4996931;28;20041;-82
2022/10/07 02:41:31;;;;;;;9.27;7.70;;;10.90;99.90;;;;;;4999406;28;20102;-83
2022/10/07 02:44:19;;;;;;;10.85;8.27;;;10.90;99.90;;;;;;4993222;28;20754;-83
2022/10/07 02:46:50;;;;;;;8.90;7.82;;;11.00;99.90;;;;;;4993306;28;20037;-83
2022/10/07 02:49:20;;;;;;;9.45;7.85;;;11.00;99.90;;;;;;4993131;28;20375;-83
2022/10/07 02:51:58;;;;;;;10.27;8.18;;;11.10;99.90;;;;;;4975770;28;20081;-84
2022/10/07 02:54:31;;;;;;;9.45;7.22;;;11.10;99.90;;;;;;4994360;28;20026;-83
2022/10/07 02:56:59;;;;;;;8.73;7.32;;;11.10;99.90;;;;;;4993258;28;20018;-82
2022/10/07 02:59:26;;;;;;;6.95;6.30;;;11.10;99.90;;;;;;4993259;28;20518;-83
2022/10/07 03:01:54;;;;;;;10.68;7.40;;;11.10;99.90;;;;;;4992558;28;20121;-82
2022/10/07 03:04:22;;;;;;;9.27;6.68;;;11.10;99.90;;;;;;5005487;28;20061;-82
2022/10/07 03:06:48;;;;;;;13.45;7.57;;;11.10;99.90;;;;;;5009550;28;20046;-82
2022/10/07 03:09:14;;;;;;;11.00;6.70;;;11.00;99.90;;;;;;4993865;28;20187;-83
2022/10/07 03:11:40;;;;;;;8.48;7.43;;;11.00;99.90;;;;;;4993617;28;20088;-85
2022/10/07 03:14:06;;;;;;;9.52;7.15;;;11.00;99.90;;;;;;4993487;28;20033;-84
2022/10/07 03:16:32;;;;;;;8.15;6.45;;;11.00;99.90;;;;;;4993296;28;20128;-83
2022/10/07 03:18:58;;;;;;;12.25;6.57;;;11.00;99.90;;;;;;4993570;28;20026;-84
2022/10/07 03:21:24;;;;;;;9.23;7.22;;;10.90;99.90;;;;;;4993012;28;20030;-84
2022/10/07 03:23:52;;;;;;;10.32;7.32;;;10.90;99.90;;;;;;4975211;28;20037;-83
2022/10/07 03:26:18;;;;;;;7.57;6.50;;;10.90;99.90;;;;;;4991761;28;20038;-83
2022/10/07 03:28:44;;;;;;;9.68;6.40;;;10.80;99.90;;;;;;4993248;28;20144;-83
2022/10/07 03:31:13;;;;;;;8.33;6.43;;;10.80;99.90;;;;;;4993173;28;20046;-83
2022/10/07 03:33:38;;;;;;;7.55;5.82;;;10.80;99.90;;;;;;4968396;28;20428;-83
2022/10/07 03:36:06;;;;;;;6.93;5.88;;;10.90;99.90;;;;;;4986391;28;20119;-85
2022/10/07 03:38:32;;;;;;;9.63;6.28;;;11.00;99.90;;;;;;4993326;28;20503;-84
2022/10/07 03:41:00;;;;;;;8.50;6.30;;;11.00;99.90;;;;;;4992646;28;20476;-83
2022/10/07 03:43:27;;;;;;;9.63;6.20;;;11.10;99.90;;;;;;4971686;28;20045;-84
2022/10/07 03:45:54;;;;;;;7.60;6.03;;;11.10;99.90;;;;;;4983711;28;20027;-83
2022/10/07 03:48:20;;;;;;;9.65;5.65;;;11.20;99.90;;;;;;4990096;28;20057;-83
2022/10/07 03:50:56;;;;;;;8.85;5.68;;;11.20;99.90;;;;;;4981418;28;20027;-84
2022/10/07 03:53:28;;;;;;;9.75;5.32;;;11.20;99.90;;;;;;4993874;28;20114;-85
2022/10/07 03:55:54;;;;;;;7.07;5.68;;;11.30;99.90;;;;;;5012340;28;20025;-82
2022/10/07 03:58:21;;;;;;;7.45;5.55;;;11.40;99.90;;;;;;5004902;28;20022;-84
2022/10/07 04:00:47;;;;;;;10.02;6.05;;;11.40;99.90;;;;;;4975789;28;20038;-84
2022/10/07 04:03:14;;;;;;;9.82;5.03;;;11.50;99.90;;;;;;4993601;28;20042;-83
2022/10/07 04:05:41;;;;;;;7.97;5.50;;;11.50;99.90;;;;;;4994387;28;20490;-84
2022/10/07 04:08:10;;;;;;;6.25;5.47;;;11.60;99.90;;;;;;4995244;28;20030;-82
2022/10/07 04:10:35;;;;;;;13.70;5.60;;;11.50;99.90;;;;;;4994233;28;20491;-84
2022/10/07 04:13:01;;;;;;;9.60;5.45;;;11.40;99.90;;;;;;4982564;28;20142;-84
2022/10/07 04:15:27;;;;;;;11.52;5.82;;;11.30;99.90;;;;;;4996669;28;20394;-86
2022/10/07 04:17:57;;;;;;;5.70;3.83;;;11.20;99.90;;;;;;4996532;28;20030;-86
2022/10/07 04:20:23;;;;;;;9.85;4.40;;;11.20;99.90;;;;;;4995980;28;20105;-84
2022/10/07 04:22:49;;;;;;;9.82;5.25;;;11.10;99.90;;;;;;4995541;28;20034;-84
2022/10/07 04:25:34;;;;;;;7.85;4.40;;;11.10;99.90;;;;;;4995691;28;20026;-84
2022/10/07 04:28:02;;;;;;;8.20;4.95;;;11.00;99.90;;;;;;4996022;28;20033;-83
2022/10/07 04:30:33;;;;;;;6.47;4.53;;;11.00;99.90;;;;;;4995477;28;20085;-84
2022/10/07 04:33:02;;;;;;;6.63;5.10;;;10.90;99.90;;;;;;4991641;28;20034;-83
2022/10/07 04:35:29;;;;;;;7.65;4.53;;;10.80;99.90;;;;;;4995935;28;20018;-82
2022/10/07 04:37:56;;;;;;;7.90;5.32;;;10.90;99.90;;;;;;4994222;28;20388;-84
2022/10/07 04:40:23;;;;;;;7.38;4.70;;;10.90;99.90;;;;;;4995985;28;20432;-82
2022/10/07 04:45:35;;;;;;;4.47;3.58;;;10.90;99.90;;;;;;4995519;28;20048;-80
2022/10/07 04:48:04;;;;;;;9.80;4.43;;;10.80;99.90;;;;;;4996726;28;20018;-82
2022/10/07 04:50:37;;;;;;;5.35;3.78;;;10.80;99.90;;;;;;4996122;28;20021;-83
2022/10/07 04:53:08;;;;;;;5.85;3.78;;;10.80;99.90;;;;;;4989397;28;20483;-83
2022/10/07 04:55:36;;;;;;;6.47;4.40;;;10.80;99.90;;;;;;4996660;28;20092;-83
2022/10/07 04:58:02;;;;;;;8.50;4.57;;;10.80;99.90;;;;;;4995309;28;20023;-83
2022/10/07 05:00:28;;;;;;;6.50;4.28;;;10.90;99.90;;;;;;4998794;28;20018;-84
2022/10/07 05:02:54;;;;;;;8.43;4.35;;;10.90;99.90;;;;;;4999964;28;20519;-81
2022/10/07 05:05:20;;;;;;;6.22;3.65;;;10.90;99.90;;;;;;5009550;28;20103;-81
2022/10/07 05:07:50;;;;;;;7.28;4.60;;;11.00;99.90;;;;;;4997822;28;20025;-83
2022/10/07 05:10:16;;;;;;;5.80;3.65;;;11.20;99.90;;;;;;4995325;28;20365;-84
2022/10/07 05:12:42;;;;;;;7.10;4.47;;;11.40;99.90;;;;;;4994167;28;20141;-83
2022/10/07 05:15:08;;;;;;;8.77;4.75;;;11.60;99.90;;;;;;4995379;28;20093;-83
2022/10/07 05:17:34;;;;;;;4.40;3.45;;;11.80;99.90;;;;;;4996915;28;20077;-84
2022/10/07 05:20:01;;;;;;;4.80;2.72;;;12.00;99.90;;;;;;4995188;28;20476;-85
2022/10/07 05:22:27;;;;;;;5.88;4.03;;;12.10;99.90;;;;;;4994385;28;20089;-84
2022/10/07 05:24:53;;;;;;;10.23;4.45;;;12.20;99.90;;;;;;4995896;28;20030;-84
2022/10/07 05:27:19;;;;;;;4.28;3.88;;;12.20;99.90;;;;;;4995952;28;20053;-84
2022/10/07 05:29:45;;;;;;;5.28;3.78;;;12.30;99.90;;;;;;5007448;28;20003;-83
2022/10/07 05:32:10;;;;;;;5.15;3.38;;;12.40;99.90;;;;;;5004279;28;20157;-85
2022/10/07 05:34:36;;;;;;;6.13;3.88;;;12.40;99.90;;;;;;4997726;28;20101;-86
2022/10/07 05:37:02;;;;;;;8.50;4.43;;;12.40;99.90;;;;;;4996010;28;20082;-85
2022/10/07 05:39:28;;;;;;;7.75;3.97;;;12.50;99.90;;;;;;4983469;28;20089;-84
2022/10/07 05:41:54;;;;;;;5.38;3.63;;;12.60;99.90;;;;;;4979382;28;20341;-84
2022/10/07 05:44:20;;;;;;;6.75;3.35;;;12.70;99.90;;;;;;5005717;28;20034;-83
2022/10/07 05:46:46;;;;;;;7.20;3.38;;;12.60;99.90;;;;;;5007187;28;20014;-83
2022/10/07 05:49:12;;;;;;;9.13;3.92;;;12.60;99.90;;;;;;4995737;28;20069;-85
2022/10/07 05:51:37;;;;;;;10.48;3.00;;;12.50;99.90;;;;;;4993758;28;20026;-86
2022/10/07 05:54:03;;;;;;;6.15;4.07;;;12.40;99.90;;;;;;4995722;28;20030;-83
2022/10/07 05:56:29;;;;;;;8.55;3.95;;;12.30;99.90;;;;;;4974551;28;20027;-85
2022/10/07 05:58:56;;;;;;;5.88;3.55;;;12.30;99.90;;;;;;4978636;28;20027;-85
2022/10/07 06:01:23;;;;;;;6.43;3.83;;;12.40;99.90;;;;;;4970009;28;20026;-85
2022/10/07 06:03:56;;;;;;;8.20;3.55;;;12.40;99.90;;;;;;4994679;28;20026;-83
2022/10/07 06:06:23;;;;;;;9.75;4.32;;;12.40;99.90;;;;;;4993894;28;20480;-84
2022/10/07 06:08:50;;;;;;;7.07;4.15;;;12.30;99.90;;;;;;4997899;28;20026;-86
2022/10/07 06:14:03;;;;;;;7.35;3.47;;;12.40;99.90;;;;;;4989602;28;20077;-88
2022/10/07 06:16:29;;;;;;;6.68;3.53;;;12.40;99.90;;;;;;4980056;28;20022;-85
2022/10/07 06:18:55;;;;;;;5.28;3.88;;;12.40;99.90;;;;;;4994247;28;20044;-83
2022/10/07 06:21:26;;;;;;;6.55;2.92;;;12.30;99.90;;;;;;4992300;28;20030;-80
2022/10/07 06:23:53;;;;;;;12.32;3.67;;;12.30;99.90;;;;;;4975895;28;20435;-81
2022/10/07 06:26:21;;;;;;;12.32;3.30;;;12.30;99.90;;;;;;4994498;28;20033;-83
2022/10/07 06:28:47;;;;;;;8.45;2.78;;;12.40;99.90;;;;;;4996823;28;20399;-82
2022/10/07 06:31:21;;;;;;;6.90;3.05;;;12.50;99.90;;;;;;4998419;28;20026;-83
2022/10/07 06:33:48;;;;;;;5.03;2.83;;;12.70;99.80;;;;;;4998819;28;20034;-85
2022/10/07 06:36:14;;;;;;;9.93;3.13;;;12.90;99.30;;;;;;4998045;28;20049;-83
2022/10/07 06:38:44;;;;;;;5.45;2.80;;;13.00;98.90;;;;;;4996920;28;20468;-83
2022/10/07 06:41:11;;;;;;;5.18;3.10;;;13.10;98.40;;;;;;4997265;28;20526;-84
2022/10/07 06:43:36;;;;;;;8.77;3.70;;;13.30;97.60;;;;;;4980251;28;20035;-83
2022/10/07 06:46:04;;;;;;;9.85;3.28;;;13.20;97.50;;;;;;4997484;28;20033;-83
2022/10/07 06:48:32;;;;;;;8.02;2.25;;;13.20;97.20;;;;;;4997827;28;20493;-85
2022/10/07 06:51:02;;;;;;;5.95;2.65;;;13.20;96.90;;;;;;4998854;28;20023;-83
2022/10/07 06:53:28;;;;;;;10.20;2.78;;;13.20;97.00;;;;;;5000526;28;20041;-84
2022/10/07 06:55:56;;;;;;;6.97;3.10;;;13.20;97.10;;;;;;5000245;28;20030;-83
2022/10/07 06:58:23;;;;;;;6.50;2.45;;;13.40;97.10;;;;;;4996037;28;20023;-84
2022/10/07 07:00:58;;;;;;;5.50;2.47;;;13.50;96.20;;;;;;4982356;28;20022;-84
2022/10/07 07:03:24;;;;;;;5.15;2.22;;;13.70;96.50;;;;;;5002300;28;20062;-83
2022/10/07 07:05:51;;;;;;;4.55;2.60;;;13.90;95.50;;;;;;5014181;28;20006;-81
2022/10/07 07:08:28;;;;;;;11.75;2.95;;;14.00;95.20;;;;;;5002633;28;20027;-84
2022/10/07 07:10:54;;;;;;;7.70;3.40;;;14.00;95.00;;;;;;5001425;28;20058;-83
2022/10/07 07:13:21;;;;;;;10.07;3.23;;;14.00;94.60;;;;;;5001148;28;20046;-83
2022/10/07 07:15:57;;;;;;;10.13;3.08;;;13.90;94.70;;;;;;5000107;28;20026;-85
2022/10/07 07:18:23;;;;;;;7.72;2.70;;;13.90;94.70;;;;;;4998835;28;20081;-83
2022/10/07 07:20:50;;;;;;;10.15;3.63;;;13.90;94.20;;;;;;4998126;28;20018;-83
2022/10/07 07:23:16;;;;;;;5.88;2.60;;;13.80;94.20;;;;;;4994554;28;20042;-84
2022/10/07 07:25:45;;;;;;;7.18;3.28;;;13.80;94.10;;;;;;4990392;28;20376;-84
2022/10/07 07:28:15;;;;;;;7.10;3.00;;;13.80;94.10;;;;;;4986741;28;20023;-85
2022/10/07 07:30:41;;;;;;;5.30;2.90;;;13.70;94.20;;;;;;4999095;28;20026;-83
2022/10/07 07:33:07;;;;;;;5.57;2.50;;;13.70;94.20;;;;;;4998116;28;20029;-83
2022/10/07 07:35:37;;;;;;;4.63;2.42;;;13.70;93.90;;;;;;5004532;28;20046;-84
2022/10/07 07:38:03;;;;;;;7.30;2.60;;;13.60;93.60;;;;;;5002904;28;20030;-83
2022/10/07 07:40:29;;;;;;;7.78;2.75;;;13.60;93.70;;;;;;4998950;28;20090;-83
2022/10/07 07:42:55;;;;;;;7.88;3.00;;;13.50;94.00;;;;;;4980778;28;20031;-84
2022/10/07 07:45:22;;;;;;;5.53;2.20;;;13.60;93.90;;;;;;4982619;28;20080;-84
2022/10/07 07:47:48;;;;;;;6.63;2.05;;;13.60;93.50;;;;;;5000940;28;20030;-84
2022/10/07 07:50:17;;;;;;;10.70;2.60;;;13.50;93.40;;;;;;4985156;28;20023;-83
2022/10/07 07:52:44;;;;;;;6.30;2.47;;;13.50;93.40;;;;;;4986694;28;20037;-83
2022/10/07 07:55:10;;;;;;;4.63;2.00;;;13.50;93.10;;;;;;5002032;28;20065;-84
2022/10/07 07:57:36;;;;;;;8.18;2.63;;;13.60;93.40;;;;;;4995931;28;20265;-82
2022/10/07 08:00:04;;;;;;;7.68;2.47;;;13.80;92.90;;;;;;5000834;28;20030;-82
2022/10/07 08:02:30;;;;;;;9.95;3.05;;;14.00;92.60;;;;;;5002290;28;20054;-82
2022/10/07 08:04:56;;;;;;;6.93;2.28;;;14.00;92.30;;;;;;5004267;28;20041;-83
2022/10/07 08:07:26;;;;;;;11.32;3.10;;;14.30;92.20;;;;;;5003356;28;20073;-83
2022/10/07 08:09:52;;;;;;;8.40;2.67;;;14.60;91.90;;;;;;5002628;28;20018;-83
2022/10/07 08:12:20;;;;;;;12.82;2.50;;;14.70;91.20;;;;;;4990978;28;20054;-83
2022/10/07 08:14:46;;;;;;;8.95;2.88;;;14.70;90.60;;;;;;5005608;28;20022;-83
2022/10/07 08:17:12;;;;;;;4.03;2.13;;;;;;;;;;5002880;28;20018;-85
2022/10/07 08:19:38;;;;;;;5.65;2.17;;;15.80;90.60;;;;;;5003297;28;20046;-83
2022/10/07 08:22:06;;;;;;;6.15;2.20;;;;;;;;;;5004140;28;20046;-83
2022/10/07 08:24:31;;;;;;;5.63;2.00;;;18.70;78.60;;;;;;5004178;28;20075;-83
2022/10/07 08:26:57;;;;;;;5.38;2.60;;;20.90;69.20;;;;;;5003297;28;20057;-84
2022/10/07 08:29:23;;;;;;;7.65;2.33;;;21.40;65.40;;;;;;4986443;28;20054;-83
2022/10/07 08:31:49;;;;;;;8.68;2.25;;;22.10;62.50;;;;;;4984281;28;20015;-84
2022/10/07 08:34:15;;;;;;;6.15;2.03;;;22.60;61.00;;;;;;5002962;28;20026;-85
2022/10/07 08:36:46;;;;;;;4.47;2.17;;;22.40;58.60;;;;;;4986374;28;20054;-84
2022/10/07 08:39:12;;;;;;;7.25;2.15;;;22.20;58.90;;;;;;5007907;28;20023;-83
2022/10/07 08:41:54;;;;;;;4.40;1.77;;;22.60;58.00;;;;;;5010865;28;20026;-84
2022/10/07 08:44:44;;;;;;;8.13;2.28;;;23.60;57.30;;;;;;5002262;28;20093;-82
2022/10/07 08:47:16;;;;;;;7.35;2.70;;;23.70;55.10;;;;;;4990621;28;20030;-84
2022/10/07 08:50:06;;;;;;;6.10;2.47;;;22.20;55.70;;;;;;5003557;28;20026;-84
2022/10/07 08:52:38;;;;;;;6.68;2.30;;;21.00;58.10;;;;;;4977207;28;20396;-84
2022/10/07 08:55:18;;;;;;;7.20;2.00;;;20.10;60.60;;;;;;4993614;28;20037;-83
2022/10/07 08:58:19;;;;;;;6.78;2.53;;;19.60;62.30;;;;;;5005009;28;20034;-84
2022/10/07 09:01:06;;;;;;;6.68;2.20;;;20.10;62.30;;;;;;4987732;28;20031;-84
2022/10/07 09:03:37;;;;;;;7.90;2.20;;;20.40;60.90;;;;;;4983519;28;20034;-84
2022/10/07 09:06:12;;;;;;;6.93;2.20;;;20.40;60.10;;;;;;5010907;28;20031;-83
2022/10/07 09:08:42;;;;;;;5.95;2.28;;;20.40;60.60;;;;;;5010515;28;20092;-85
2022/10/07 09:11:15;;;;;;;8.98;2.60;;;21.30;59.90;;;;;;5004257;28;20491;-82
2022/10/07 09:13:53;;;;;;;4.80;2.10;;;22.80;56.40;;;;;;4990513;28;20147;-83
2022/10/07 09:16:27;;;;;;;6.30;2.33;;;23.60;54.30;;;;;;5010064;28;20019;-84
2022/10/07 09:18:57;;;;;;;4.60;2.30;;;23.60;52.30;;;;;;5010984;28;20030;-85
2022/10/07 09:21:27;;;;;;;8.60;1.77;;;23.20;53.10;;;;;;4992700;28;20026;-83
2022/10/07 09:24:17;;;;;;;6.25;2.00;;;23.00;52.90;;;;;;4992587;28;20035;-83
2022/10/07 09:26:47;;;;;;;5.20;2.20;;;23.00;53.40;;;;;;4987975;28;20040;-86
2022/10/07 09:29:13;;;;;;;5.90;2.17;;;24.10;51.10;;;;;;5002789;28;20097;-84
2022/10/07 09:31:39;;;;;;;9.13;2.40;;;24.20;50.50;;;;;;4984007;28;20060;-84
2022/10/07 09:34:05;;;;;;;7.15;2.13;;;24.00;50.80;;;;;;5000028;28;20487;-85
2022/10/07 09:36:31;;;;;;;5.72;2.42;;;24.10;50.00;;;;;;5000173;28;20035;-84
2022/10/07 09:39:25;;;;;;;8.50;2.85;;;23.10;50.90;;;;;;4982882;28;20038;-85
2022/10/07 09:41:51;;;;;;;7.63;2.30;;;22.00;52.60;;;;;;5002047;28;20034;-85
2022/10/07 09:44:18;;;;;;;9.27;1.97;;;20.50;55.10;;;;;;5001927;28;20038;-84
2022/10/07 09:47:00;;;;;;;9.67;2.60;;;19.80;56.90;;;;;;4995917;28;20180;-84
2022/10/07 09:49:26;;;;;;;7.55;2.50;;;19.40;58.00;;;;;;4993536;28;20356;-83
2022/10/07 09:52:04;;;;;;;4.57;2.60;;;18.90;59.20;;;;;;5001478;28;20093;-83
2022/10/07 09:54:33;;;;;;;7.57;1.85;;;18.70;59.90;;;;;;5004972;28;20042;-85
2022/10/07 09:57:02;;;;;;;8.13;3.08;;;18.60;60.60;;;;;;5003427;28;20523;-84
2022/10/07 09:59:34;;;;;;;6.93;1.83;;;19.20;60.90;;;;;;4993251;28;20030;-84
2022/10/07 10:02:21;;;;;;;2.95;1.60;;;20.60;58.40;;;;;;4994208;28;20037;-85
2022/10/07 10:04:53;;;;;;;3.58;1.63;;;22.10;55.20;;;;;;4992532;28;20101;-86
2022/10/07 10:07:24;;;;;;;6.32;1.75;;;22.40;52.90;;;;;;4995140;28;20046;-84
2022/10/07 10:09:52;;;;;;;4.20;1.75;;;21.40;53.70;;;;;;4980977;28;20018;-85
2022/10/07 10:12:20;;;;;;;6.55;1.65;;;20.30;55.70;;;;;;5002315;28;20050;-84
2022/10/07 10:14:54;;;;;;;3.65;1.88;;;19.40;57.80;;;;;;5004277;28;20033;-83
2022/10/07 10:17:29;;;;;;;6.43;2.45;;;18.70;59.90;;;;;;4989039;28;20019;-83
2022/10/07 10:20:15;;;;;;;8.00;4.35;;;18.20;61.40;;;;;;4988672;28;20058;-84
2022/10/07 10:22:41;;;;;;;7.25;3.10;;;17.80;62.20;;;;;;5001459;28;20026;-85
2022/10/07 10:28:13;;;;;;;6.87;2.77;;;16.90;65.00;;;;;;5002722;28;20033;-85
2022/10/07 10:30:56;;;;;;;7.30;3.13;;;16.70;65.90;;;;;;4975200;28;20022;-85
2022/10/07 10:33:52;;;;;;;3.83;1.88;;;16.70;66.60;;;;;;5110200;27;20382;-86
2022/10/07 10:36:25;;;;;;;8.73;4.90;;;16.80;66.80;;;;;;5093305;28;20028;-87
2022/10/07 10:39:05;;;;;;;9.77;4.82;;;17.10;66.50;;;;;;5084024;28;20021;-84
2022/10/07 10:41:53;;;;;;;4.55;2.38;;;17.30;65.70;;;;;;5094611;28;20020;-84
2022/10/07 10:44:35;;;;;;;5.10;2.40;;;17.00;65.30;;;;;;5094870;28;20126;-84
2022/10/07 10:47:32;;;;;;;6.97;2.50;;;17.00;66.40;;;;;;5096273;28;20076;-86
2022/10/07 10:50:12;;;;;;;7.53;2.97;;;17.10;66.00;;;;;;5081562;28;20052;-83
2022/10/07 10:52:52;;;;;;;7.32;2.05;;;17.20;66.60;;;;;;5096224;28;20059;-85
2022/10/07 10:55:46;;;;;;;12.20;2.97;;;17.20;65.90;;;;;;5093015;28;20025;-83
2022/10/07 10:58:30;;;;;;;10.10;2.50;;;17.30;66.20;;;;;;5095332;28;20016;-84
2022/10/07 11:01:27;;;;;;;9.27;2.42;;;17.10;66.30;;;;;;5086011;28;20031;-84
2022/10/07 11:04:03;;;;;;;8.38;2.50;;;16.90;67.20;;;;;;5098389;28;20086;-84
2022/10/07 11:06:35;;;;;;;7.50;2.63;;;16.90;67.80;;;;;;5102356;28;20086;-84
2022/10/07 11:09:02;;;;;;;6.18;2.40;;;16.90;67.90;;;;;;5094470;28;20048;-82
2022/10/07 11:11:34;;;;;;;9.50;2.92;;;16.70;68.20;;;;;;5104770;28;20032;-83
2022/10/07 11:14:16;;;;;;;8.18;2.70;;;16.60;68.70;;;;;;5088100;28;20033;-85
2022/10/07 11:16:56;;;;;;;7.47;2.75;;;16.50;68.90;;;;;;5091121;28;20076;-84
2022/10/07 11:19:39;;;;;;;7.30;2.88;;;16.50;69.30;;;;;;5102082;28;20025;-83
2022/10/07 11:22:14;;;;;;;13.18;2.83;;;16.50;69.30;;;;;;5102999;28;20060;-85
2022/10/07 11:24:53;;;;;;;6.15;2.30;;;16.30;69.70;;;;;;5102345;28;20028;-83
2022/10/07 11:27:28;;;;;;;6.90;2.38;;;16.30;69.70;;;;;;5100951;28;20024;-85
2022/10/07 11:30:12;;;;;;;10.30;3.15;;;16.40;70.20;;;;;;5100581;28;20024;-84
2022/10/07 11:32:55;;;;;;;11.30;3.75;;;16.40;69.60;;;;;;5100311;28;20503;-84
2022/10/07 11:35:35;;;;;;;7.88;2.80;;;16.30;70.00;;;;;;5084797;28;20031;-84
2022/10/07 11:38:12;;;;;;;7.50;2.83;;;16.20;70.30;;;;;;5080422;28;20072;-82
2022/10/07 11:40:56;;;;;;;10.88;5.35;;;16.20;70.80;;;;;;5076266;28;20025;-83
2022/10/07 11:43:39;;;;;;;13.13;8.02;;;16.20;69.70;;;;;;5069071;28;20017;-83
2022/10/07 11:46:23;;;;;;;11.40;4.43;;;15.90;70.50;;;;;;5066810;28;20091;-84
2022/10/07 11:48:58;;;;;;;6.63;2.78;;;15.80;71.40;;;;;;5077510;28;20032;-83
2022/10/07 11:51:29;;;;;;;13.75;2.10;;;15.90;71.50;;;;;;5086932;28;20024;-83
2022/10/07 11:54:01;;;;;;;5.88;2.40;;;16.00;71.50;;;;;;5084741;28;20089;-83
2022/10/07 11:56:48;;;;;;;6.90;2.42;;;15.90;70.90;;;;;;5082723;28;20027;-83
2022/10/07 11:59:38;;;;;;;9.93;2.83;;;15.70;71.50;;;;;;5074290;28;20024;-84
2022/10/07 12:02:27;;;;;;;6.38;2.25;;;15.60;72.00;;;;;;5075151;28;20108;-85
2022/10/07 12:04:56;;;;;;;11.32;3.95;;;15.50;72.20;;;;;;5075111;28;20021;-84
2022/10/07 12:07:34;;;;;;;7.70;2.83;;;15.50;72.40;;;;;;5061149;28;20029;-84
2022/10/07 12:10:02;;;;;;;7.53;3.67;;;15.60;72.70;;;;;;5070826;28;20031;-83
2022/10/07 12:12:44;;;;;;;9.25;2.35;;;15.80;72.20;;;;;;5083372;28;20041;-84
2022/10/07 12:15:29;;;;;;;6.78;2.55;;;15.90;71.40;;;;;;5084282;28;20108;-84
2022/10/07 12:18:05;;;;;;;8.32;2.70;;;15.80;71.20;;;;;;5084723;28;20051;-84
2022/10/07 12:20:34;;;;;;;6.57;2.00;;;15.70;71.40;;;;;;5084543;28;20027;-82
2022/10/07 12:25:49;;;;;;;4.82;2.33;;;15.40;72.10;;;;;;5080029;28;20032;-83
2022/10/07 12:28:36;;;;;;;9.38;2.30;;;15.30;72.30;;;;;;5079548;28;20021;-83
2022/10/07 12:31:21;;;;;;;7.75;2.80;;;15.30;72.60;;;;;;5080973;28;20102;-83
2022/10/07 12:34:10;;;;;;;7.97;2.17;;;15.40;73.20;;;;;;5066176;28;20032;-83
2022/10/07 12:36:39;;;;;;;3.92;1.88;;;15.50;73.10;;;;;;5064891;28;20531;-83
2022/10/07 12:39:08;;;;;;;7.22;2.58;;;15.40;73.00;;;;;;5071009;28;20052;-83
2022/10/07 12:41:42;;;;;;;6.50;1.83;;;15.30;73.30;;;;;;5063773;28;20025;-84
2022/10/07 12:44:17;;;;;;;11.15;2.42;;;15.20;73.60;;;;;;5065832;28;20132;-82
2022/10/07 12:46:56;;;;;;;11.90;3.53;;;15.10;74.00;;;;;;5065759;28;20036;-82
2022/10/07 12:49:31;;;;;;;11.65;2.50;;;15.00;74.70;;;;;;5081393;28;20017;-83
2022/10/07 12:52:02;;;;;;;7.68;2.63;;;15.00;74.90;;;;;;5082251;28;20061;-82
2022/10/07 12:54:45;;;;;;;9.68;2.92;;;14.90;75.00;;;;;;5080502;28;20543;-84
2022/10/07 12:57:16;;;;;;;7.13;2.03;;;14.80;75.20;;;;;;5081017;28;20025;-83
2022/10/07 12:59:54;;;;;;;6.88;2.33;;;14.80;75.20;;;;;;5080953;28;20025;-84
2022/10/07 13:02:26;;;;;;;7.78;2.65;;;14.70;75.50;;;;;;5066269;28;20062;-85
2022/10/07 13:05:14;;;;;;;11.38;2.78;;;14.60;76.10;;;;;;5068484;28;20044;-83
2022/10/07 13:08:08;;;;;;;6.57;2.30;;;14.50;76.30;;;;;;5069758;28;20024;-84
2022/10/07 13:10:59;;;;;;;6.55;2.67;;;14.40;76.90;;;;;;5033267;28;20088;-83
2022/10/07 13:13:58;;;;;;;7.40;2.25;;;14.50;77.10;;;;;;5072193;28;20035;-82
2022/10/07 13:16:53;;;;;;;5.45;2.10;;;14.50;77.20;;;;;;5087318;28;20035;-84
2022/10/07 13:19:19;;;;;;;7.07;2.42;;;14.50;77.20;;;;;;5077460;28;20045;-83
2022/10/07 13:21:47;;;;;;;7.47;2.90;;;14.50;77.60;;;;;;5087289;28;20021;-83
2022/10/07 13:24:19;;;;;;;8.65;1.77;;;14.60;77.20;;;;;;5086110;28;20031;-83